createdAt,value
2023-04-14T00:02:34.298Z,1.00
2023-04-14T00:12:42.770Z,1.17
2023-04-14T00:23:38.897Z,1.00
2023-04-14T00:33:48.011Z,1.10
2023-04-14T00:54:53.273Z,1.00
2023-04-14T01:05:00.460Z,1.10
2023-04-14T01:15:32.582Z,1.00
2023-04-14T01:26:24.133Z,0.80
2023-04-14T01:36:44.085Z,0.80
2023-04-14T01:46:57.851Z,0.80
2023-04-14T01:57:08.221Z,0.80
2023-04-14T02:07:16.857Z,0.80
2023-04-14T02:17:26.810Z,0.70
2023-04-14T02:27:38.683Z,0.75
2023-04-14T02:37:51.631Z,1.00
2023-04-14T02:48:01.369Z,0.73
2023-04-14T02:58:12.378Z,0.57
2023-04-14T03:19:41.755Z,0.88
2023-04-14T03:30:05.180Z,0.70
2023-04-14T03:40:19.485Z,1.23
2023-04-14T03:50:33.899Z,1.30
2023-04-14T04:00:47.442Z,1.70
2023-04-14T04:10:56.738Z,1.63
2023-04-14T04:21:09.032Z,1.40
2023-04-14T04:31:17.044Z,1.38
2023-04-14T04:41:52.880Z,1.80
2023-04-14T04:52:01.771Z,1.50
2023-04-14T05:02:24.261Z,1.60
2023-04-14T05:12:56.638Z,1.45
2023-04-14T05:23:43.748Z,1.15
2023-04-14T05:33:55.050Z,1.40
2023-04-14T05:44:39.371Z,1.50
2023-04-14T05:54:53.808Z,1.33
2023-04-14T06:05:31.790Z,1.15
2023-04-14T06:15:43.932Z,1.10
2023-04-14T06:25:59.281Z,1.08
2023-04-14T06:36:11.715Z,1.10
2023-04-14T06:46:27.137Z,0.90
2023-04-14T06:56:38.731Z,0.90
2023-04-14T07:06:51.581Z,0.90
2023-04-14T07:17:00.146Z,0.90
2023-04-14T07:37:53.746Z,0.73
2023-04-14T07:48:00.822Z,0.65
2023-04-14T07:58:09.222Z,0.60
2023-04-14T08:08:18.697Z,0.70
2023-04-14T08:18:27.630Z,0.70
2023-04-14T08:28:34.476Z,0.70
2023-04-14T08:38:42.954Z,0.50
2023-04-14T08:48:51.967Z,0.60
2023-04-14T08:59:02.568Z,0.70
2023-04-14T09:09:11.687Z,0.57
2023-04-14T09:19:25.257Z,0.55
2023-04-14T09:29:32.380Z,0.52
2023-04-14T09:39:53.321Z,0.40
2023-04-14T09:50:05.175Z,0.50
2023-04-14T10:00:35.534Z,0.60
2023-04-14T10:10:46.757Z,0.57
2023-04-14T10:20:59.381Z,0.45
2023-04-14T10:31:14.823Z,0.60
2023-04-14T10:41:30.412Z,0.50
2023-04-14T10:51:40.058Z,0.50
2023-04-14T11:02:08.377Z,0.45
2023-04-14T11:12:30.902Z,0.55
2023-04-14T11:22:48.562Z,0.60
2023-04-14T11:32:58.970Z,0.55
2023-04-14T11:43:12.158Z,0.60
2023-04-14T11:53:25.210Z,0.55
2023-04-14T12:03:36.920Z,0.50
2023-04-14T12:13:48.563Z,0.47
2023-04-14T12:24:03.821Z,0.50
2023-04-14T12:34:32.226Z,0.60
2023-04-14T12:45:01.791Z,0.52
2023-04-14T12:55:53.249Z,0.70
2023-04-14T13:06:33.933Z,0.45
2023-04-14T13:16:46.963Z,0.68
2023-04-14T13:26:58.940Z,0.60
2023-04-14T13:37:10.271Z,0.50
2023-04-14T13:47:33.863Z,0.47
2023-04-14T13:57:50.399Z,0.40
2023-04-14T14:08:06.540Z,0.60
2023-04-14T14:18:16.803Z,0.50
2023-04-14T14:28:27.494Z,0.40
2023-04-14T14:38:41.667Z,0.50
2023-04-14T15:14:08.803Z,0.80
2023-04-14T15:24:45.731Z,0.80
2023-04-14T15:37:11.512Z,1.05
2023-04-14T15:58:04.174Z,0.90
2023-04-14T16:08:17.803Z,1.00
2023-04-14T16:18:26.205Z,0.85
2023-04-14T16:28:33.168Z,0.95
2023-04-14T16:38:54.240Z,1.10
2023-04-14T16:49:05.390Z,0.90
2023-04-14T16:59:21.120Z,1.02
2023-04-14T17:09:29.134Z,1.00
2023-04-14T17:19:39.345Z,1.00
2023-04-14T17:29:47.920Z,1.00
2023-04-14T17:39:59.148Z,0.90
2023-04-14T17:50:07.659Z,0.95
2023-04-14T18:00:17.899Z,0.90
2023-04-14T18:10:25.766Z,1.05
2023-04-14T18:20:35.479Z,1.10
2023-04-14T18:30:43.328Z,1.33
2023-04-14T18:53:42.722Z,1.60
2023-04-14T19:03:49.530Z,1.77
2023-04-14T19:35:59.792Z,2.15
2023-04-14T19:46:08.957Z,1.70
2023-04-14T19:56:17.557Z,1.33
2023-04-14T20:06:24.273Z,1.35
2023-04-14T20:16:35.826Z,1.05
2023-04-14T20:26:44.597Z,1.00
2023-04-14T20:36:54.632Z,1.13
2023-04-14T20:47:09.203Z,1.10
2023-04-14T20:57:17.965Z,1.00
2023-04-14T21:07:25.094Z,1.10
2023-04-14T21:17:35.219Z,1.30
2023-04-14T21:27:42.542Z,1.38
2023-04-14T21:37:51.376Z,1.30
2023-04-14T21:47:59.672Z,1.33
2023-04-14T21:58:08.528Z,1.50
2023-04-14T22:08:15.533Z,1.35
2023-04-14T22:18:24.781Z,1.10
2023-04-14T22:28:40.525Z,0.90
2023-04-14T22:38:55.507Z,1.10
2023-04-14T22:49:03.136Z,1.00
2023-04-14T22:59:14.683Z,0.95
2023-04-14T23:09:22.109Z,1.10
2023-04-14T23:19:34.526Z,0.90
2023-04-14T23:29:41.401Z,1.10
2023-04-14T23:39:50.821Z,1.00
2023-04-14T23:49:58.846Z,0.70
